sensor_id;sensor_type;location;lat;lon;timestamp;pressure;altitude;pressure_sealevel;temperature;humidity
19447;BME280;9862;49.462;11.054;2023-03-03T00:02:27;98246.47;;;6.14;100.00
19447;BME280;9862;49.462;11.054;2023-03-03T00:04:55;98245.38;;;6.08;100.00
19447;BME280;9862;49.462;11.054;2023-03-03T00:07:22;98247.41;;;5.90;100.00
19447;BME280;9862;49.462;11.054;2023-03-03T00:09:49;98241.16;;;5.91;100.00
19447;BME280;9862;49.462;11.054;2023-03-03T00:12:20;98234.13;;;6.06;100.00
19447;BME280;9862;49.462;11.054;2023-03-03T00:14:48;98243.31;;;6.18;100.00
19447;BME280;9862;49.462;11.054;2023-03-03T00:17:20;98244.72;;;6.29;100.00
19447;BME280;9862;49.462;11.054;2023-03-03T00:19:47;98236.84;;;6.44;100.00
19447;BME280;9862;49.462;11.054;2023-03-03T00:22:23;98240.13;;;6.69;100.00
19447;BME280;9862;49.462;11.054;2023-03-03T00:24:52;98239.38;;;6.75;100.00
19447;BME280;9862;49.462;11.054;2023-03-03T00:27:28;98238.81;;;6.65;100.00
19447;BME280;9862;49.462;11.054;2023-03-03T00:29:55;98232.44;;;6.59;100.00
19447;BME280;9862;49.462;11.054;2023-03-03T00:32:24;98241.19;;;6.59;100.00
19447;BME280;9862;49.462;11.054;2023-03-03T00:34:52;98242.28;;;6.65;100.00
19447;BME280;9862;49.462;11.054;2023-03-03T00:37:26;98243.44;;;6.85;100.00
19447;BME280;9862;49.462;11.054;2023-03-03T00:39:58;98242.16;;;6.81;100.00
19447;BME280;9862;49.462;11.054;2023-03-03T00:42:27;98244.28;;;6.63;100.00
19447;BME280;9862;49.462;11.054;2023-03-03T00:44:55;98251.00;;;6.51;100.00
19447;BME280;9862;49.462;11.054;2023-03-03T00:47:28;98245.31;;;6.39;100.00
19447;BME280;9862;49.462;11.054;2023-03-03T00:50:15;98252.28;;;6.55;100.00
19447;BME280;9862;49.462;11.054;2023-03-03T00:52:50;98253.66;;;6.51;100.00
19447;BME280;9862;49.462;11.054;2023-03-03T00:55:19;98248.47;;;6.35;100.00
19447;BME280;9862;49.462;11.054;2023-03-03T00:57:45;98251.53;;;6.23;100.00
19447;BME280;9862;49.462;11.054;2023-03-03T01:00:13;98254.41;;;6.37;100.00
19447;BME280;9862;49.462;11.054;2023-03-03T01:02:39;98255.47;;;6.27;100.00
19447;BME280;9862;49.462;11.054;2023-03-03T01:05:07;98257.72;;;6.08;100.00
19447;BME280;9862;49.462;11.054;2023-03-03T01:07:35;98254.34;;;5.99;100.00
19447;BME280;9862;49.462;11.054;2023-03-03T01:10:03;98250.75;;;5.84;100.00
19447;BME280;9862;49.462;11.054;2023-03-03T01:12:30;98257.31;;;5.88;100.00
19447;BME280;9862;49.462;11.054;2023-03-03T01:14:57;98255.03;;;5.85;100.00
19447;BME280;9862;49.462;11.054;2023-03-03T01:17:23;98252.59;;;5.75;100.00
19447;BME280;9862;49.462;11.054;2023-03-03T01:19:50;98255.91;;;5.69;100.00
19447;BME280;9862;49.462;11.054;2023-03-03T01:22:16;98256.59;;;5.71;100.00
19447;BME280;9862;49.462;11.054;2023-03-03T01:24:43;98260.09;;;5.55;100.00
19447;BME280;9862;49.462;11.054;2023-03-03T01:27:11;98257.03;;;5.35;100.00
19447;BME280;9862;49.462;11.054;2023-03-03T01:29:38;98261.53;;;5.18;100.00
19447;BME280;9862;49.462;11.054;2023-03-03T01:32:05;98249.75;;;5.45;100.00
19447;BME280;9862;49.462;11.054;2023-03-03T01:34:31;98252.59;;;5.36;100.00
19447;BME280;9862;49.462;11.054;2023-03-03T01:36:58;98255.56;;;5.33;100.00
19447;BME280;9862;49.462;11.054;2023-03-03T01:39:26;98248.03;;;5.22;100.00
19447;BME280;9862;49.462;11.054;2023-03-03T01:41:52;98239.22;;;5.37;100.00
19447;BME280;9862;49.462;11.054;2023-03-03T01:44:20;98234.34;;;5.57;100.00
19447;BME280;9862;49.462;11.054;2023-03-03T01:46:51;98242.03;;;5.75;100.00
19447;BME280;9862;49.462;11.054;2023-03-03T01:49:22;98244.22;;;5.71;100.00
19447;BME280;9862;49.462;11.054;2023-03-03T01:51:53;98231.50;;;5.67;100.00
19447;BME280;9862;49.462;11.054;2023-03-03T01:54:24;98236.25;;;5.80;100.00
19447;BME280;9862;49.462;11.054;2023-03-03T01:56:56;98233.88;;;5.93;100.00
19447;BME280;9862;49.462;11.054;2023-03-03T01:59:28;98228.94;;;5.90;100.00
19447;BME280;9862;49.462;11.054;2023-03-03T02:01:57;98225.16;;;5.84;100.00
19447;BME280;9862;49.462;11.054;2023-03-03T02:04:23;98225.38;;;5.74;100.00
19447;BME280;9862;49.462;11.054;2023-03-03T02:06:55;98223.34;;;5.85;100.00
19447;BME280;9862;49.462;11.054;2023-03-03T02:09:26;98231.47;;;5.75;100.00
19447;BME280;9862;49.462;11.054;2023-03-03T02:12:00;98231.81;;;5.72;100.00
19447;BME280;9862;49.462;11.054;2023-03-03T02:14:30;98238.19;;;5.86;100.00
19447;BME280;9862;49.462;11.054;2023-03-03T02:16:56;98228.44;;;5.86;100.00
19447;BME280;9862;49.462;11.054;2023-03-03T02:19:28;98237.72;;;5.82;100.00
19447;BME280;9862;49.462;11.054;2023-03-03T02:21:58;98232.50;;;5.66;100.00
19447;BME280;9862;49.462;11.054;2023-03-03T02:24:28;98237.31;;;5.62;100.00
19447;BME280;9862;49.462;11.054;2023-03-03T02:27:00;98230.41;;;5.61;100.00
19447;BME280;9862;49.462;11.054;2023-03-03T02:29:27;98227.97;;;5.91;100.00
19447;BME280;9862;49.462;11.054;2023-03-03T02:31:53;98242.59;;;6.01;100.00
19447;BME280;9862;49.462;11.054;2023-03-03T02:34:20;98236.19;;;5.88;100.00
19447;BME280;9862;49.462;11.054;2023-03-03T02:36:46;98241.22;;;5.74;100.00
19447;BME280;9862;49.462;11.054;2023-03-03T02:39:15;98238.69;;;5.50;100.00
19447;BME280;9862;49.462;11.054;2023-03-03T02:41:45;98235.47;;;5.32;100.00
19447;BME280;9862;49.462;11.054;2023-03-03T02:44:18;98232.16;;;5.30;100.00
19447;BME280;9862;49.462;11.054;2023-03-03T02:46:46;98232.16;;;5.30;100.00
19447;BME280;9862;49.462;11.054;2023-03-03T02:49:15;98241.06;;;5.29;100.00
19447;BME280;9862;49.462;11.054;2023-03-03T02:51:42;98239.41;;;5.28;100.00
19447;BME280;9862;49.462;11.054;2023-03-03T02:54:10;98239.44;;;5.20;100.00
19447;BME280;9862;49.462;11.054;2023-03-03T02:56:37;98241.44;;;5.17;100.00
19447;BME280;9862;49.462;11.054;2023-03-03T02:59:04;98242.78;;;5.13;100.00
19447;BME280;9862;49.462;11.054;2023-03-03T03:01:33;98242.44;;;5.08;100.00
19447;BME280;9862;49.462;11.054;2023-03-03T03:04:02;98242.16;;;4.87;100.00
19447;BME280;9862;49.462;11.054;2023-03-03T03:06:30;98251.22;;;4.93;100.00
19447;BME280;9862;49.462;11.054;2023-03-03T03:08:57;98240.78;;;5.07;100.00
19447;BME280;9862;49.462;11.054;2023-03-03T03:11:24;98245.06;;;5.08;100.00
19447;BME280;9862;49.462;11.054;2023-03-03T03:13:51;98241.41;;;5.26;100.00
19447;BME280;9862;49.462;11.054;2023-03-03T03:16:18;98234.97;;;5.28;100.00
19447;BME280;9862;49.462;11.054;2023-03-03T03:18:46;98243.72;;;5.21;100.00
19447;BME280;9862;49.462;11.054;2023-03-03T03:21:15;98242.91;;;5.20;100.00
19447;BME280;9862;49.462;11.054;2023-03-03T03:23:43;98239.78;;;5.16;100.00
19447;BME280;9862;49.462;11.054;2023-03-03T03:26:10;98246.69;;;5.17;100.00
19447;BME280;9862;49.462;11.054;2023-03-03T03:28:37;98245.59;;;5.04;100.00
19447;BME280;9862;49.462;11.054;2023-03-03T03:31:04;98251.34;;;5.07;100.00
19447;BME280;9862;49.462;11.054;2023-03-03T03:33:31;98254.06;;;5.30;100.00
19447;BME280;9862;49.462;11.054;2023-03-03T03:36:00;98258.44;;;5.07;100.00
19447;BME280;9862;49.462;11.054;2023-03-03T03:38:28;98256.00;;;4.89;100.00
19447;BME280;9862;49.462;11.054;2023-03-03T03:40:56;98252.38;;;4.82;100.00
19447;BME280;9862;49.462;11.054;2023-03-03T03:43:22;98257.97;;;4.87;100.00
19447;BME280;9862;49.462;11.054;2023-03-03T03:45:49;98250.72;;;4.89;100.00
19447;BME280;9862;49.462;11.054;2023-03-03T03:48:16;98252.06;;;4.77;100.00
19447;BME280;9862;49.462;11.054;2023-03-03T03:50:44;98257.66;;;4.74;100.00
19447;BME280;9862;49.462;11.054;2023-03-03T03:53:12;98258.31;;;4.68;100.00
19447;BME280;9862;49.462;11.054;2023-03-03T03:55:38;98260.13;;;4.67;100.00
19447;BME280;9862;49.462;11.054;2023-03-03T03:58:05;98267.69;;;4.70;100.00
19447;BME280;9862;49.462;11.054;2023-03-03T04:00:31;98268.53;;;4.54;100.00
19447;BME280;9862;49.462;11.054;2023-03-03T04:02:58;98265.22;;;4.52;100.00
19447;BME280;9862;49.462;11.054;2023-03-03T04:05:25;98269.69;;;4.60;100.00
19447;BME280;9862;49.462;11.054;2023-03-03T04:07:51;98261.59;;;4.53;100.00
19447;BME280;9862;49.462;11.054;2023-03-03T04:10:19;98252.72;;;4.46;100.00
19447;BME280;9862;49.462;11.054;2023-03-03T04:12:46;98253.56;;;4.47;100.00
19447;BME280;9862;49.462;11.054;2023-03-03T04:15:13;98261.28;;;4.56;100.00
19447;BME280;9862;49.462;11.054;2023-03-03T04:17:40;98250.91;;;4.55;100.00
19447;BME280;9862;49.462;11.054;2023-03-03T04:20:10;98261.94;;;4.50;100.00
19447;BME280;9862;49.462;11.054;2023-03-03T04:22:38;98261.47;;;4.55;100.00
19447;BME280;9862;49.462;11.054;2023-03-03T04:25:05;98260.47;;;4.64;100.00
19447;BME280;9862;49.462;11.054;2023-03-03T04:27:35;98259.47;;;4.65;100.00
19447;BME280;9862;49.462;11.054;2023-03-03T04:30:03;98262.28;;;4.64;100.00
19447;BME280;9862;49.462;11.054;2023-03-03T04:32:30;98266.88;;;4.70;100.00
19447;BME280;9862;49.462;11.054;2023-03-03T04:34:58;98257.97;;;4.87;100.00
19447;BME280;9862;49.462;11.054;2023-03-03T04:37:25;98266.53;;;4.73;100.00
19447;BME280;9862;49.462;11.054;2023-03-03T04:39:51;98269.19;;;4.56;100.00
19447;BME280;9862;49.462;11.054;2023-03-03T04:42:18;98278.72;;;4.41;100.00
19447;BME280;9862;49.462;11.054;2023-03-03T04:44:46;98284.09;;;3.99;100.00
19447;BME280;9862;49.462;11.054;2023-03-03T04:47:12;98273.44;;;3.66;100.00
19447;BME280;9862;49.462;11.054;2023-03-03T04:49:39;98278.53;;;3.60;100.00
19447;BME280;9862;49.462;11.054;2023-03-03T04:52:05;98280.19;;;3.61;100.00
19447;BME280;9862;49.462;11.054;2023-03-03T04:54:32;98275.88;;;3.52;100.00
19447;BME280;9862;49.462;11.054;2023-03-03T04:56:58;98277.19;;;3.48;100.00
19447;BME280;9862;49.462;11.054;2023-03-03T04:59:25;98280.03;;;3.62;100.00
19447;BME280;9862;49.462;11.054;2023-03-03T05:01:53;98277.75;;;3.67;100.00
19447;BME280;9862;49.462;11.054;2023-03-03T05:04:19;98279.72;;;3.73;100.00
19447;BME280;9862;49.462;11.054;2023-03-03T05:06:46;98287.31;;;3.77;100.00
19447;BME280;9862;49.462;11.054;2023-03-03T05:09:12;98287.66;;;3.82;100.00
19447;BME280;9862;49.462;11.054;2023-03-03T05:11:39;98281.59;;;3.89;100.00
19447;BME280;9862;49.462;11.054;2023-03-03T05:14:05;98285.25;;;3.96;100.00
19447;BME280;9862;49.462;11.054;2023-03-03T05:16:32;98285.25;;;3.96;100.00
19447;BME280;9862;49.462;11.054;2023-03-03T05:19:00;98283.28;;;3.98;100.00
19447;BME280;9862;49.462;11.054;2023-03-03T05:21:27;98287.84;;;3.88;100.00
19447;BME280;9862;49.462;11.054;2023-03-03T05:23:53;98297.84;;;3.85;100.00
19447;BME280;9862;49.462;11.054;2023-03-03T05:26:20;98295.63;;;3.98;100.00
19447;BME280;9862;49.462;11.054;2023-03-03T05:28:46;98289.16;;;3.92;100.00
19447;BME280;9862;49.462;11.054;2023-03-03T05:31:13;98298.84;;;3.84;100.00
19447;BME280;9862;49.462;11.054;2023-03-03T05:33:40;98291.59;;;3.78;100.00
19447;BME280;9862;49.462;11.054;2023-03-03T05:36:08;98290.91;;;3.67;100.00
19447;BME280;9862;49.462;11.054;2023-03-03T05:38:35;98292.28;;;3.88;100.00
19447;BME280;9862;49.462;11.054;2023-03-03T05:41:01;98300.09;;;4.14;100.00
19447;BME280;9862;49.462;11.054;2023-03-03T05:43:28;98293.81;;;4.15;100.00
19447;BME280;9862;49.462;11.054;2023-03-03T05:45:55;98299.91;;;3.99;100.00
19447;BME280;9862;49.462;11.054;2023-03-03T05:48:22;98303.00;;;3.86;100.00
19447;BME280;9862;49.462;11.054;2023-03-03T05:50:48;98310.75;;;3.96;100.00
19447;BME280;9862;49.462;11.054;2023-03-03T05:53:16;98309.22;;;3.85;100.00
19447;BME280;9862;49.462;11.054;2023-03-03T05:55:43;98314.50;;;3.93;100.00
19447;BME280;9862;49.462;11.054;2023-03-03T05:58:09;98314.31;;;3.79;100.00
19447;BME280;9862;49.462;11.054;2023-03-03T06:00:36;98310.50;;;3.73;100.00
19447;BME280;9862;49.462;11.054;2023-03-03T06:03:02;98326.06;;;3.66;100.00
19447;BME280;9862;49.462;11.054;2023-03-03T06:05:29;98330.50;;;3.66;100.00
19447;BME280;9862;49.462;11.054;2023-03-03T06:07:55;98326.72;;;3.60;100.00
19447;BME280;9862;49.462;11.054;2023-03-03T06:10:24;98340.97;;;3.50;100.00
19447;BME280;9862;49.462;11.054;2023-03-03T06:12:50;98329.81;;;3.56;100.00
19447;BME280;9862;49.462;11.054;2023-03-03T06:15:17;98331.88;;;3.70;100.00
19447;BME280;9862;49.462;11.054;2023-03-03T06:17:44;98331.63;;;3.89;100.00
19447;BME280;9862;49.462;11.054;2023-03-03T06:20:10;98336.34;;;3.86;100.00
19447;BME280;9862;49.462;11.054;2023-03-03T06:22:37;98328.03;;;3.98;100.00
19447;BME280;9862;49.462;11.054;2023-03-03T06:25:04;98326.41;;;4.06;100.00
19447;BME280;9862;49.462;11.054;2023-03-03T06:27:32;98343.53;;;4.10;100.00
19447;BME280;9862;49.462;11.054;2023-03-03T06:29:59;98347.16;;;4.09;100.00
19447;BME280;9862;49.462;11.054;2023-03-03T06:32:25;98351.72;;;3.98;100.00
19447;BME280;9862;49.462;11.054;2023-03-03T06:34:52;98355.69;;;4.02;100.00
19447;BME280;9862;49.462;11.054;2023-03-03T06:37:18;98365.31;;;3.86;100.00
19447;BME280;9862;49.462;11.054;2023-03-03T06:39:45;98362.81;;;3.76;100.00
19447;BME280;9862;49.462;11.054;2023-03-03T06:42:11;98370.03;;;3.74;100.00
19447;BME280;9862;49.462;11.054;2023-03-03T06:44:39;98371.50;;;3.68;100.00
19447;BME280;9862;49.462;11.054;2023-03-03T06:47:06;98380.22;;;3.69;100.00
19447;BME280;9862;49.462;11.054;2023-03-03T06:49:32;98370.97;;;3.65;100.00
19447;BME280;9862;49.462;11.054;2023-03-03T06:52:04;98373.31;;;3.76;100.00
19447;BME280;9862;49.462;11.054;2023-03-03T06:54:35;98367.28;;;3.84;100.00
19447;BME280;9862;49.462;11.054;2023-03-03T06:57:12;98380.16;;;3.87;100.00
19447;BME280;9862;49.462;11.054;2023-03-03T06:59:41;98375.06;;;3.93;100.00
19447;BME280;9862;49.462;11.054;2023-03-03T07:02:13;98372.38;;;3.85;100.00
19447;BME280;9862;49.462;11.054;2023-03-03T07:04:41;98372.09;;;3.88;100.00
19447;BME280;9862;49.462;11.054;2023-03-03T07:07:15;98372.84;;;4.07;100.00
19447;BME280;9862;49.462;11.054;2023-03-03T07:09:43;98391.38;;;4.39;100.00
19447;BME280;9862;49.462;11.054;2023-03-03T07:12:14;98383.97;;;4.35;100.00
19447;BME280;9862;49.462;11.054;2023-03-03T07:14:44;98386.66;;;4.09;100.00
19447;BME280;9862;49.462;11.054;2023-03-03T07:17:14;98385.59;;;3.93;100.00
19447;BME280;9862;49.462;11.054;2023-03-03T07:19:42;98399.78;;;3.40;100.00
19447;BME280;9862;49.462;11.054;2023-03-03T07:22:14;98413.97;;;3.04;100.00
19447;BME280;9862;49.462;11.054;2023-03-03T07:24:42;98414.88;;;2.95;100.00
19447;BME280;9862;49.462;11.054;2023-03-03T07:27:12;98397.78;;;2.99;100.00
19447;BME280;9862;49.462;11.054;2023-03-03T07:29:41;98404.41;;;3.03;100.00
19447;BME280;9862;49.462;11.054;2023-03-03T07:32:32;98408.34;;;3.42;100.00
19447;BME280;9862;49.462;11.054;2023-03-03T07:35:16;98414.94;;;3.47;100.00
19447;BME280;9862;49.462;11.054;2023-03-03T07:37:47;98411.88;;;3.33;100.00
19447;BME280;9862;49.462;11.054;2023-03-03T07:40:28;98419.38;;;3.46;100.00
19447;BME280;9862;49.462;11.054;2023-03-03T07:42:56;98425.72;;;3.35;100.00
19447;BME280;9862;49.462;11.054;2023-03-03T07:45:27;98429.69;;;3.39;100.00
19447;BME280;9862;49.462;11.054;2023-03-03T07:48:00;98427.31;;;3.54;100.00
19447;BME280;9862;49.462;11.054;2023-03-03T07:50:33;98430.22;;;3.69;100.00
19447;BME280;9862;49.462;11.054;2023-03-03T07:53:00;98438.59;;;3.47;100.00
19447;BME280;9862;49.462;11.054;2023-03-03T07:55:30;98428.16;;;3.55;100.00
19447;BME280;9862;49.462;11.054;2023-03-03T07:58:15;98430.53;;;3.66;100.00
19447;BME280;9862;49.462;11.054;2023-03-03T08:03:52;98442.47;;;3.78;100.00
19447;BME280;9862;49.462;11.054;2023-03-03T08:06:36;98443.19;;;3.88;100.00
19447;BME280;9862;49.462;11.054;2023-03-03T08:09:31;98442.66;;;3.85;100.00
19447;BME280;9862;49.462;11.054;2023-03-03T08:12:19;98436.59;;;3.92;100.00
19447;BME280;9862;49.462;11.054;2023-03-03T08:14:50;98446.16;;;3.41;100.00
19447;BME280;9862;49.462;11.054;2023-03-03T08:17:20;98450.13;;;3.45;100.00
19447;BME280;9862;49.462;11.054;2023-03-03T08:19:49;98444.25;;;3.52;100.00
19447;BME280;9862;49.462;11.054;2023-03-03T08:22:18;98447.00;;;3.68;100.00
19447;BME280;9862;49.462;11.054;2023-03-03T08:24:45;98441.72;;;3.94;100.00
19447;BME280;9862;49.462;11.054;2023-03-03T08:27:11;98446.56;;;4.07;100.00
19447;BME280;9862;49.462;11.054;2023-03-03T08:29:38;98438.81;;;4.05;100.00
19447;BME280;9862;49.462;11.054;2023-03-03T08:32:04;98441.19;;;4.24;100.00
19447;BME280;9862;49.462;11.054;2023-03-03T08:34:31;98444.56;;;4.43;100.00
19447;BME280;9862;49.462;11.054;2023-03-03T08:36:59;98445.13;;;4.54;100.00
19447;BME280;9862;49.462;11.054;2023-03-03T08:39:25;98452.69;;;4.57;100.00
19447;BME280;9862;49.462;11.054;2023-03-03T08:41:52;98452.69;;;4.57;100.00
19447;BME280;9862;49.462;11.054;2023-03-03T08:44:19;98460.09;;;4.62;100.00
19447;BME280;9862;49.462;11.054;2023-03-03T08:46:46;98452.03;;;4.55;100.00
19447;BME280;9862;49.462;11.054;2023-03-03T08:49:13;98453.09;;;4.28;100.00
19447;BME280;9862;49.462;11.054;2023-03-03T08:51:39;98447.69;;;4.38;100.00
19447;BME280;9862;49.462;11.054;2023-03-03T08:54:07;98444.25;;;4.46;100.00
19447;BME280;9862;49.462;11.054;2023-03-03T08:56:34;98451.22;;;4.63;100.00
19447;BME280;9862;49.462;11.054;2023-03-03T08:59:01;98446.00;;;4.79;100.00
19447;BME280;9862;49.462;11.054;2023-03-03T09:01:27;98435.63;;;4.86;100.00
19447;BME280;9862;49.462;11.054;2023-03-03T09:03:54;98423.78;;;4.98;100.00
19447;BME280;9862;49.462;11.054;2023-03-03T09:06:20;98430.06;;;5.13;100.00
19447;BME280;9862;49.462;11.054;2023-03-03T09:08:47;98437.00;;;5.23;100.00
19447;BME280;9862;49.462;11.054;2023-03-03T09:11:20;98422.31;;;5.53;100.00
19447;BME280;9862;49.462;11.054;2023-03-03T09:13:48;98427.75;;;5.51;100.00
19447;BME280;9862;49.462;11.054;2023-03-03T09:16:17;98417.16;;;5.59;100.00
19447;BME280;9862;49.462;11.054;2023-03-03T09:18:45;98430.66;;;5.89;100.00
19447;BME280;9862;49.462;11.054;2023-03-03T09:21:18;98430.25;;;6.16;100.00
19447;BME280;9862;49.462;11.054;2023-03-03T09:23:49;98424.91;;;6.32;100.00
19447;BME280;9862;49.462;11.054;2023-03-03T09:26:25;98423.63;;;6.28;100.00
19447;BME280;9862;49.462;11.054;2023-03-03T09:28:53;98420.00;;;6.21;100.00
19447;BME280;9862;49.462;11.054;2023-03-03T09:31:24;98426.16;;;6.53;100.00
19447;BME280;9862;49.462;11.054;2023-03-03T09:33:51;98430.69;;;6.36;100.00
19447;BME280;9862;49.462;11.054;2023-03-03T09:36:24;98429.53;;;6.39;100.00
19447;BME280;9862;49.462;11.054;2023-03-03T09:38:52;98434.00;;;6.38;100.00
19447;BME280;9862;49.462;11.054;2023-03-03T09:41:38;98427.09;;;6.29;100.00
19447;BME280;9862;49.462;11.054;2023-03-03T09:44:21;98436.97;;;6.35;100.00
19447;BME280;9862;49.462;11.054;2023-03-03T09:47:02;98451.69;;;6.38;100.00
19447;BME280;9862;49.462;11.054;2023-03-03T09:49:41;98436.47;;;6.40;100.00
19447;BME280;9862;49.462;11.054;2023-03-03T09:52:22;98441.16;;;6.21;100.00
19447;BME280;9862;49.462;11.054;2023-03-03T09:54:58;98439.63;;;6.27;100.00
19447;BME280;9862;49.462;11.054;2023-03-03T09:57:36;98443.13;;;6.27;100.00
19447;BME280;9862;49.462;11.054;2023-03-03T10:00:21;98446.66;;;6.51;100.00
19447;BME280;9862;49.462;11.054;2023-03-03T10:03:08;98455.84;;;6.63;100.00
19447;BME280;9862;49.462;11.054;2023-03-03T10:05:46;98453.19;;;6.63;100.00
19447;BME280;9862;49.462;11.054;2023-03-03T10:08:35;98455.28;;;6.76;100.00
19447;BME280;9862;49.462;11.054;2023-03-03T10:11:12;98446.78;;;6.88;100.00
19447;BME280;9862;49.462;11.054;2023-03-03T10:13:54;98439.94;;;6.94;100.00
19447;BME280;9862;49.462;11.054;2023-03-03T10:19:30;98445.09;;;6.96;100.00
19447;BME280;9862;49.462;11.054;2023-03-03T10:22:11;98450.53;;;6.94;100.00
19447;BME280;9862;49.462;11.054;2023-03-03T10:24:45;98448.97;;;7.08;100.00
19447;BME280;9862;49.462;11.054;2023-03-03T10:27:27;98431.16;;;7.02;100.00
19447;BME280;9862;49.462;11.054;2023-03-03T10:30:02;98439.03;;;7.10;100.00
19447;BME280;9862;49.462;11.054;2023-03-03T10:32:45;98436.63;;;7.00;100.00
19447;BME280;9862;49.462;11.054;2023-03-03T10:35:27;98440.81;;;7.17;100.00
19447;BME280;9862;49.462;11.054;2023-03-03T10:38:08;98435.25;;;7.27;100.00
19447;BME280;9862;49.462;11.054;2023-03-03T10:40:42;98437.59;;;7.22;100.00
19447;BME280;9862;49.462;11.054;2023-03-03T10:43:24;98436.97;;;7.20;100.00
19447;BME280;9862;49.462;11.054;2023-03-03T10:46:16;98438.13;;;7.40;100.00
19447;BME280;9862;49.462;11.054;2023-03-03T10:54:54;98444.13;;;7.57;100.00
19447;BME280;9862;49.462;11.054;2023-03-03T10:57:29;98446.44;;;7.37;100.00
19447;BME280;9862;49.462;11.054;2023-03-03T11:00:10;98443.84;;;7.29;100.00
19447;BME280;9862;49.462;11.054;2023-03-03T11:02:55;98443.72;;;7.45;100.00
19447;BME280;9862;49.462;11.054;2023-03-03T11:05:32;98433.34;;;7.59;100.00
19447;BME280;9862;49.462;11.054;2023-03-03T11:08:08;98429.91;;;7.73;100.00
19447;BME280;9862;49.462;11.054;2023-03-03T11:10:47;98438.69;;;7.88;100.00
19447;BME280;9862;49.462;11.054;2023-03-03T11:13:21;98429.72;;;7.89;100.00
19447;BME280;9862;49.462;11.054;2023-03-03T11:15:57;98430.03;;;7.94;100.00
19447;BME280;9862;49.462;11.054;2023-03-03T11:18:40;98429.94;;;8.02;100.00
19447;BME280;9862;49.462;11.054;2023-03-03T11:21:12;98427.38;;;7.94;100.00
19447;BME280;9862;49.462;11.054;2023-03-03T11:23:57;98420.44;;;7.93;100.00
19447;BME280;9862;49.462;11.054;2023-03-03T11:26:41;98426.00;;;7.84;100.00
19447;BME280;9862;49.462;11.054;2023-03-03T11:29:29;98434.72;;;7.69;100.00
19447;BME280;9862;49.462;11.054;2023-03-03T11:32:06;98418.00;;;7.69;100.00
19447;BME280;9862;49.462;11.054;2023-03-03T11:34:54;98430.63;;;7.67;100.00
19447;BME280;9862;49.462;11.054;2023-03-03T11:37:24;98416.56;;;7.81;100.00
19447;BME280;9862;49.462;11.054;2023-03-03T11:39:56;98421.69;;;7.97;100.00
19447;BME280;9862;49.462;11.054;2023-03-03T11:42:36;98423.16;;;8.15;100.00
19447;BME280;9862;49.462;11.054;2023-03-03T11:45:14;98417.59;;;8.24;100.00
19447;BME280;9862;49.462;11.054;2023-03-03T11:47:48;98415.84;;;8.17;100.00
19447;BME280;9862;49.462;11.054;2023-03-03T11:50:22;98414.00;;;8.32;100.00
19447;BME280;9862;49.462;11.054;2023-03-03T11:52:54;98403.22;;;8.19;100.00
19447;BME280;9862;49.462;11.054;2023-03-03T11:55:32;98397.91;;;8.19;100.00
19447;BME280;9862;49.462;11.054;2023-03-03T11:58:07;98395.09;;;8.35;100.00
19447;BME280;9862;49.462;11.054;2023-03-03T12:00:38;98400.75;;;8.47;100.00
19447;BME280;9862;49.462;11.054;2023-03-03T12:03:16;98385.66;;;8.47;100.00
19447;BME280;9862;49.462;11.054;2023-03-03T12:05:54;98394.09;;;8.51;100.00
19447;BME280;9862;49.462;11.054;2023-03-03T12:08:33;98392.78;;;8.62;100.00
19447;BME280;9862;49.462;11.054;2023-03-03T12:11:06;98383.50;;;8.72;100.00
19447;BME280;9862;49.462;11.054;2023-03-03T12:13:49;98386.56;;;8.54;100.00
19447;BME280;9862;49.462;11.054;2023-03-03T12:16:25;98393.41;;;8.64;100.00
19447;BME280;9862;49.462;11.054;2023-03-03T12:19:21;98383.00;;;8.47;100.00
19447;BME280;9862;49.462;11.054;2023-03-03T12:22:05;98384.03;;;8.68;100.00
19447;BME280;9862;49.462;11.054;2023-03-03T12:24:44;98373.94;;;8.78;100.00
19447;BME280;9862;49.462;11.054;2023-03-03T12:27:19;98367.59;;;8.72;100.00
19447;BME280;9862;49.462;11.054;2023-03-03T12:29:56;98357.47;;;8.82;100.00
19447;BME280;9862;49.462;11.054;2023-03-03T12:32:35;98348.69;;;9.03;100.00
19447;BME280;9862;49.462;11.054;2023-03-03T12:35:08;98353.09;;;8.96;100.00
19447;BME280;9862;49.462;11.054;2023-03-03T12:37:47;98346.22;;;9.02;100.00
19447;BME280;9862;49.462;11.054;2023-03-03T12:40:19;98349.97;;;9.07;100.00
19447;BME280;9862;49.462;11.054;2023-03-03T12:43:01;98333.03;;;9.08;99.76
19447;BME280;9862;49.462;11.054;2023-03-03T12:45:38;98343.34;;;9.25;99.71
19447;BME280;9862;49.462;11.054;2023-03-03T12:48:14;98339.16;;;9.37;96.90
19447;BME280;9862;49.462;11.054;2023-03-03T12:50:48;98347.28;;;9.29;96.34
19447;BME280;9862;49.462;11.054;2023-03-03T12:53:40;98329.69;;;9.28;96.07
19447;BME280;9862;49.462;11.054;2023-03-03T12:56:11;98340.00;;;9.44;95.62
19447;BME280;9862;49.462;11.054;2023-03-03T12:58:44;98338.00;;;9.18;96.64
19447;BME280;9862;49.462;11.054;2023-03-03T13:01:28;98331.97;;;9.31;95.51
19447;BME280;9862;49.462;11.054;2023-03-03T13:04:04;98324.88;;;9.38;93.92
19447;BME280;9862;49.462;11.054;2023-03-03T13:06:38;98322.06;;;9.46;93.61
19447;BME280;9862;49.462;11.054;2023-03-03T13:09:21;98327.06;;;9.62;92.78
19447;BME280;9862;49.462;11.054;2023-03-03T13:12:02;98328.31;;;9.66;89.80
19447;BME280;9862;49.462;11.054;2023-03-03T13:14:35;98326.75;;;9.79;89.42
19447;BME280;9862;49.462;11.054;2023-03-03T13:17:16;98332.22;;;9.70;87.44
19447;BME280;9862;49.462;11.054;2023-03-03T13:19:48;98324.25;;;9.70;86.96
19447;BME280;9862;49.462;11.054;2023-03-03T13:22:28;98317.00;;;9.86;86.35
19447;BME280;9862;49.462;11.054;2023-03-03T13:25:02;98317.81;;;9.93;82.55
19447;BME280;9862;49.462;11.054;2023-03-03T13:27:34;98322.53;;;9.91;82.66
19447;BME280;9862;49.462;11.054;2023-03-03T13:30:14;98318.69;;;10.00;81.82
19447;BME280;9862;49.462;11.054;2023-03-03T13:32:47;98320.75;;;10.11;78.99
19447;BME280;9862;49.462;11.054;2023-03-03T13:35:30;98309.75;;;10.14;76.85